createdAt,value
2022-08-11T00:01:20.296Z,2.45
2022-08-11T00:03:53.456Z,2.90
2022-08-11T00:06:32.728Z,2.58
2022-08-11T00:09:02.085Z,2.63
2022-08-11T00:11:38.533Z,2.90
2022-08-11T00:14:15.877Z,3.28
2022-08-11T00:16:52.885Z,2.80
2022-08-11T00:20:12.232Z,2.47
2022-08-11T00:22:20.339Z,2.67
2022-08-11T00:24:54.727Z,3.03
2022-08-11T00:27:37.234Z,2.42
2022-08-11T00:30:06.851Z,2.90
2022-08-11T00:32:35.263Z,2.72
2022-08-11T00:35:51.228Z,3.10
2022-08-11T00:37:54.164Z,2.92
2022-08-11T00:40:53.523Z,3.10
2022-08-11T00:43:24.221Z,2.97
2022-08-11T00:46:19.653Z,3.80
2022-08-11T00:49:18.507Z,3.20
2022-08-11T00:52:13.261Z,3.47
2022-08-11T00:55:02.381Z,3.10
2022-08-11T00:58:10.803Z,3.60
2022-08-11T01:01:01.727Z,3.28
2022-08-11T01:03:56.369Z,3.40
2022-08-11T01:06:54.745Z,2.53
2022-08-11T01:09:22.999Z,2.90
2022-08-11T01:12:15.655Z,2.67
2022-08-11T01:15:04.480Z,2.83
2022-08-11T01:17:56.568Z,3.00
2022-08-11T01:20:49.432Z,3.08
2022-08-11T01:23:41.884Z,2.67
2022-08-11T01:26:43.391Z,3.35
2022-08-11T01:29:17.320Z,2.80
2022-08-11T01:32:14.245Z,2.90
2022-08-11T01:35:03.507Z,2.72
2022-08-11T01:38:00.503Z,2.80
2022-08-11T01:40:36.836Z,3.33
2022-08-11T01:43:46.896Z,2.60
2022-08-11T01:46:35.377Z,3.22
2022-08-11T01:50:06.618Z,2.80
2022-08-11T01:52:30.919Z,3.20
2022-08-11T01:55:18.078Z,2.90
2022-08-11T01:58:02.689Z,3.30
2022-08-11T02:00:33.012Z,2.72
2022-08-11T02:03:22.387Z,3.20
2022-08-11T02:06:02.158Z,2.88
2022-08-11T02:08:55.687Z,2.42
2022-08-11T02:11:35.730Z,3.10
2022-08-11T02:14:31.565Z,2.63
2022-08-11T02:17:37.368Z,3.10
2022-08-11T02:20:41.759Z,2.35
2022-08-11T02:24:07.166Z,2.67
2022-08-11T02:26:41.583Z,2.80
2022-08-11T02:29:22.848Z,2.53
2022-08-11T02:32:38.321Z,2.50
2022-08-11T02:35:19.273Z,2.42
2022-08-11T02:38:06.191Z,2.60
2022-08-11T02:40:49.503Z,2.80
2022-08-11T02:44:02.725Z,2.35
2022-08-11T02:46:46.774Z,2.47
2022-08-11T02:49:47.215Z,2.78
2022-08-11T02:53:02.167Z,3.13
2022-08-11T02:55:57.998Z,2.80
2022-08-11T02:58:41.441Z,3.10
2022-08-11T03:01:20.034Z,3.33
2022-08-11T03:03:55.223Z,2.83
2022-08-11T03:06:45.251Z,2.85
2022-08-11T03:09:40.470Z,2.78
2022-08-11T03:12:53.147Z,3.20
2022-08-11T03:15:46.544Z,2.95
2022-08-11T03:18:42.680Z,2.95
2022-08-11T03:21:11.286Z,2.60
2022-08-11T03:24:01.481Z,3.05
2022-08-11T03:26:32.449Z,2.80
2022-08-11T03:29:25.431Z,3.25
2022-08-11T03:32:02.471Z,2.40
2022-08-11T03:34:31.816Z,2.85
2022-08-11T03:37:42.425Z,2.53
2022-08-11T03:40:41.911Z,2.70
2022-08-11T03:43:29.064Z,2.60
2022-08-11T03:46:19.229Z,2.40
2022-08-11T03:49:06.879Z,2.25
2022-08-11T03:51:52.216Z,2.20
2022-08-11T03:54:39.934Z,2.70
2022-08-11T03:57:36.475Z,3.05
2022-08-11T04:00:13.283Z,2.78
2022-08-11T04:02:59.034Z,2.42
2022-08-11T04:05:45.077Z,3.22
2022-08-11T04:08:25.738Z,2.60
2022-08-11T04:11:29.290Z,2.70
2022-08-11T04:14:40.077Z,2.45
2022-08-11T04:17:27.012Z,2.53
2022-08-11T04:20:29.656Z,2.08
2022-08-11T04:24:36.438Z,2.78
2022-08-11T04:26:19.150Z,2.45
2022-08-11T04:29:04.112Z,2.53
2022-08-11T04:31:52.812Z,2.15
2022-08-11T04:34:26.132Z,2.38
2022-08-11T04:37:27.023Z,2.80
2022-08-11T04:40:06.367Z,2.75
2022-08-11T04:43:04.312Z,2.47
2022-08-11T04:45:50.183Z,2.80
2022-08-11T04:48:42.375Z,2.78
2022-08-11T04:51:49.960Z,2.05
2022-08-11T04:55:02.470Z,3.13
2022-08-11T04:58:29.976Z,2.72
2022-08-11T05:01:42.176Z,2.92
2022-08-11T05:04:43.722Z,2.45
2022-08-11T05:07:14.038Z,3.45
2022-08-11T05:09:41.194Z,3.05
2022-08-11T05:12:50.166Z,2.72
2022-08-11T05:15:53.060Z,2.40
2022-08-11T05:18:43.146Z,2.58
2022-08-11T05:21:31.255Z,3.13
2022-08-11T05:24:39.575Z,2.80
2022-08-11T05:27:28.190Z,2.33
2022-08-11T05:30:23.501Z,2.72
2022-08-11T05:33:33.162Z,2.55
2022-08-11T05:36:17.419Z,2.85
2022-08-11T05:39:13.300Z,2.17
2022-08-11T05:41:59.644Z,2.67
2022-08-11T05:44:47.691Z,2.90
2022-08-11T05:47:44.633Z,2.92
2022-08-11T05:50:33.302Z,3.10
2022-08-11T05:53:21.672Z,2.85
2022-08-11T05:56:10.605Z,2.38
2022-08-11T05:58:43.177Z,2.55
2022-08-11T06:01:21.161Z,2.63
2022-08-11T06:04:10.981Z,2.25
2022-08-11T06:06:45.207Z,2.97
2022-08-11T06:09:14.558Z,3.00
2022-08-11T06:11:44.937Z,2.55
2022-08-11T06:14:15.317Z,2.50
2022-08-11T06:16:43.446Z,2.35
2022-08-11T06:19:11.244Z,2.50
2022-08-11T06:21:44.572Z,3.58
2022-08-11T06:24:14.290Z,2.60
2022-08-11T06:27:09.073Z,2.60
2022-08-11T06:29:47.726Z,2.63
2022-08-11T06:32:16.412Z,2.53
2022-08-11T06:35:17.475Z,2.53
2022-08-11T06:38:02.377Z,2.35
2022-08-11T06:40:41.125Z,3.13
2022-08-11T06:43:24.194Z,2.55
2022-08-11T06:46:08.154Z,3.38
2022-08-11T06:48:39.722Z,2.10
2022-08-11T06:51:13.736Z,3.00
2022-08-11T06:54:04.233Z,2.75
2022-08-11T06:57:12.457Z,2.65
2022-08-11T07:00:02.385Z,2.67
2022-08-11T07:02:38.114Z,2.28
2022-08-11T07:05:30.124Z,2.67
2022-08-11T07:08:50.254Z,2.50
2022-08-11T07:12:13.448Z,3.00
2022-08-11T07:15:10.282Z,2.92
2022-08-11T07:18:12.048Z,2.95
2022-08-11T07:21:02.173Z,3.30
2022-08-11T07:24:03.645Z,2.80
2022-08-11T07:26:55.707Z,2.33
2022-08-11T07:29:23.696Z,2.72
2022-08-11T07:31:53.976Z,2.53
2022-08-11T07:34:36.397Z,2.30
2022-08-11T07:37:17.874Z,2.35
2022-08-11T07:39:47.793Z,2.55
2022-08-11T07:42:17.393Z,2.25
2022-08-11T07:45:08.454Z,2.28
2022-08-11T07:47:55.828Z,2.60
2022-08-11T07:50:43.143Z,2.80
2022-08-11T07:53:12.959Z,2.45
2022-08-11T07:55:51.889Z,2.70
2022-08-11T07:58:45.429Z,2.78
2022-08-11T08:01:41.359Z,2.63
2022-08-11T08:04:30.248Z,2.47
2022-08-11T08:07:17.393Z,2.33
2022-08-11T08:10:04.072Z,3.03
2022-08-11T08:12:51.259Z,2.47
2022-08-11T08:15:39.667Z,2.55
2022-08-11T08:18:26.145Z,2.58
2022-08-11T08:21:11.751Z,2.35
2022-08-11T08:23:40.685Z,2.60
2022-08-11T08:26:28.514Z,2.47
2022-08-11T08:29:20.621Z,2.40
2022-08-11T08:31:49.360Z,2.30
2022-08-11T08:34:17.439Z,2.55
2022-08-11T08:36:47.142Z,2.33
2022-08-11T08:39:16.465Z,2.42
2022-08-11T08:41:44.779Z,2.60
2022-08-11T08:44:37.167Z,2.50
2022-08-11T08:47:05.863Z,2.53
2022-08-11T08:49:40.417Z,1.98
2022-08-11T08:52:26.037Z,2.22
2022-08-11T08:55:04.272Z,2.25
2022-08-11T08:57:39.299Z,1.92
2022-08-11T09:00:08.875Z,2.60
2022-08-11T09:02:40.211Z,2.28
2022-08-11T09:05:09.954Z,2.53
2022-08-11T09:07:39.694Z,2.10
2022-08-11T09:10:10.370Z,2.03
2022-08-11T09:12:39.817Z,1.88
2022-08-11T09:15:10.172Z,2.08
2022-08-11T09:17:45.104Z,1.60
2022-08-11T09:20:24.677Z,2.08
2022-08-11T09:26:31.035Z,1.80
2022-08-11T09:29:00.285Z,1.98
2022-08-11T09:31:38.711Z,1.77
2022-08-11T09:34:09.702Z,1.95
2022-08-11T09:36:58.671Z,2.17
2022-08-11T09:39:46.433Z,2.40
2022-08-11T09:42:16.385Z,1.98
2022-08-11T09:44:49.944Z,1.95
2022-08-11T09:47:28.514Z,1.70
2022-08-11T09:50:02.231Z,1.77
2022-08-11T09:52:37.603Z,2.22
2022-08-11T09:55:11.732Z,1.90
2022-08-11T09:57:59.432Z,1.70
2022-08-11T10:00:33.139Z,1.70
2022-08-11T10:03:07.094Z,1.75
2022-08-11T10:05:53.329Z,1.90
2022-08-11T10:08:26.674Z,2.17
2022-08-11T10:10:55.443Z,1.95
2022-08-11T10:14:30.448Z,2.22
2022-08-11T10:16:15.191Z,1.75
2022-08-11T10:18:52.753Z,1.80
2022-08-11T10:21:34.525Z,1.60
2022-08-11T10:24:21.419Z,1.80
2022-08-11T10:26:58.878Z,2.30
2022-08-11T10:29:52.102Z,1.48
2022-08-11T10:32:57.817Z,1.90
2022-08-11T10:35:26.286Z,1.95
2022-08-11T10:38:07.485Z,2.15
2022-08-11T10:40:41.450Z,1.75
2022-08-11T10:43:56.815Z,1.60
2022-08-11T10:46:30.298Z,2.20
2022-08-11T10:48:59.088Z,1.80
2022-08-11T10:51:50.973Z,2.25
2022-08-11T10:54:41.220Z,1.95
2022-08-11T10:57:28.110Z,2.00
2022-08-11T10:59:57.722Z,1.65
2022-08-11T11:02:29.913Z,1.90
2022-08-11T11:05:12.503Z,2.30
2022-08-11T11:08:03.716Z,1.90
2022-08-11T11:10:32.207Z,1.88
2022-08-11T11:13:18.441Z,2.10
2022-08-11T11:16:06.034Z,1.63
2022-08-11T11:18:37.884Z,2.30
2022-08-11T11:21:09.589Z,2.38
2022-08-11T11:24:00.973Z,2.20
2022-08-11T11:27:03.005Z,2.10
2022-08-11T11:30:02.104Z,1.80
2022-08-11T11:32:49.561Z,1.77
2022-08-11T11:35:38.065Z,1.77
2022-08-11T11:38:13.861Z,1.60
2022-08-11T11:40:43.684Z,2.00
2022-08-11T11:43:11.399Z,1.60
2022-08-11T11:45:42.158Z,1.60
2022-08-11T11:48:11.924Z,2.05
2022-08-11T11:50:40.292Z,1.80
2022-08-11T11:53:10.416Z,2.10
2022-08-11T11:55:38.612Z,2.00
2022-08-11T11:58:25.520Z,2.13
2022-08-11T12:01:12.687Z,2.00
2022-08-11T12:03:40.935Z,1.75
2022-08-11T12:06:13.008Z,1.65
2022-08-11T12:08:41.906Z,1.90
2022-08-11T12:11:31.671Z,2.30
2022-08-11T12:14:02.070Z,2.22
2022-08-11T12:16:34.114Z,2.67
2022-08-11T12:19:11.767Z,2.75
2022-08-11T12:22:00.737Z,2.38
2022-08-11T12:24:52.602Z,2.75
2022-08-11T12:27:20.670Z,2.05
2022-08-11T12:29:56.999Z,1.92
2022-08-11T12:32:27.642Z,2.30
2022-08-11T12:34:57.137Z,2.38
2022-08-11T12:37:32.285Z,2.28
2022-08-11T12:40:43.030Z,2.20
2022-08-11T12:43:40.439Z,2.10
2022-08-11T12:46:11.570Z,1.80
2022-08-11T12:49:04.015Z,1.80
2022-08-11T12:52:11.359Z,2.17
2022-08-11T12:54:41.520Z,2.25
2022-08-11T12:57:37.328Z,2.20
2022-08-11T13:00:24.989Z,4.72
2022-08-11T13:03:12.767Z,3.60
2022-08-11T13:05:44.499Z,3.33
2022-08-11T13:08:16.769Z,4.15
2022-08-11T13:11:04.109Z,2.60
2022-08-11T13:13:53.538Z,1.73
2022-08-11T13:16:21.440Z,2.75
2022-08-11T13:18:50.133Z,2.40
2022-08-11T13:21:20.188Z,2.22
2022-08-11T13:24:01.955Z,2.72
2022-08-11T13:26:39.234Z,1.73
2022-08-11T13:29:25.440Z,1.90
2022-08-11T13:31:56.329Z,2.20
2022-08-11T13:34:26.739Z,2.22
2022-08-11T13:36:58.280Z,1.70
2022-08-11T13:39:28.421Z,1.80
2022-08-11T13:41:59.422Z,1.80
2022-08-11T13:44:30.051Z,2.03
2022-08-11T13:47:02.410Z,1.70
2022-08-11T13:49:37.067Z,1.70
2022-08-11T13:52:13.032Z,1.77
2022-08-11T13:54:42.358Z,1.90
2022-08-11T13:57:13.837Z,1.67
2022-08-11T14:00:23.372Z,2.20
2022-08-11T14:02:56.531Z,1.92
2022-08-11T14:05:39.907Z,2.35
2022-08-11T14:08:37.819Z,2.67
2022-08-11T14:12:20.493Z,1.73
2022-08-11T14:14:10.972Z,2.28
2022-08-11T14:16:42.628Z,2.20
2022-08-11T14:19:14.093Z,1.70
2022-08-11T14:22:07.033Z,2.38
2022-08-11T14:24:38.586Z,2.08
2022-08-11T14:27:08.299Z,2.17
2022-08-11T14:29:55.891Z,2.28
2022-08-11T14:32:24.482Z,2.22
2022-08-11T14:34:55.705Z,3.03
2022-08-11T14:37:25.212Z,1.80
2022-08-11T14:40:03.305Z,1.90
2022-08-11T14:42:50.153Z,2.20
2022-08-11T14:45:54.370Z,1.70
2022-08-11T14:48:23.898Z,1.70
2022-08-11T14:50:52.591Z,2.30
2022-08-11T14:53:22.333Z,1.98
2022-08-11T14:56:09.482Z,2.35
2022-08-11T14:58:37.706Z,2.33
2022-08-11T15:01:25.747Z,2.25
2022-08-11T15:04:25.113Z,1.95
2022-08-11T15:06:40.952Z,1.90
2022-08-11T15:09:09.331Z,1.65
2022-08-11T15:11:55.737Z,1.95
2022-08-11T15:14:42.229Z,2.03
2022-08-11T15:17:12.923Z,1.65
2022-08-11T15:20:02.928Z,1.52
2022-08-11T15:22:49.287Z,1.70
2022-08-11T15:25:16.888Z,1.77
2022-08-11T15:28:07.309Z,1.80
2022-08-11T15:30:55.389Z,2.10
2022-08-11T15:33:45.241Z,1.58
2022-08-11T15:36:32.861Z,1.90
2022-08-11T15:39:07.559Z,2.28
2022-08-11T15:42:05.338Z,3.08
2022-08-11T15:45:04.085Z,3.10
2022-08-11T15:47:46.010Z,2.28
2022-08-11T15:50:17.728Z,1.80
2022-08-11T15:53:07.815Z,1.95
2022-08-11T15:55:37.484Z,2.55
2022-08-11T15:58:28.461Z,1.92
2022-08-11T16:01:15.483Z,2.00
2022-08-11T16:04:13.760Z,1.80
2022-08-11T16:07:05.243Z,1.92
2022-08-11T16:09:47.006Z,2.03
2022-08-11T16:12:30.330Z,1.80
2022-08-11T16:15:24.266Z,1.85
2022-08-11T16:18:01.161Z,2.00
2022-08-11T16:20:29.592Z,1.90
2022-08-11T16:23:02.380Z,2.00
2022-08-11T16:27:04.431Z,2.20
2022-08-11T16:28:22.971Z,2.20
2022-08-11T16:30:52.292Z,2.45
2022-08-11T16:33:50.357Z,1.80
2022-08-11T16:36:32.059Z,2.08
2022-08-11T16:39:01.428Z,2.20
2022-08-11T16:41:52.686Z,2.10
2022-08-11T16:44:39.924Z,2.05
2022-08-11T16:47:12.962Z,2.10
2022-08-11T16:49:52.149Z,2.25
2022-08-11T16:52:22.840Z,2.35
2022-08-11T16:54:52.781Z,3.35
2022-08-11T16:57:45.768Z,2.55
2022-08-11T17:00:15.891Z,2.20
2022-08-11T17:03:05.611Z,2.10
2022-08-11T17:05:57.500Z,2.50
2022-08-11T17:08:57.622Z,2.40
2022-08-11T17:11:50.143Z,2.03
2022-08-11T17:14:36.532Z,3.05
2022-08-11T17:17:16.628Z,6.00
2022-08-11T17:20:42.468Z,5.90
2022-08-11T17:23:00.782Z,4.93
2022-08-11T17:25:31.547Z,3.50
2022-08-11T17:28:20.039Z,2.55
2022-08-11T17:31:10.730Z,2.53
2022-08-11T17:34:08.496Z,2.55
2022-08-11T17:36:40.427Z,3.50
2022-08-11T17:39:14.015Z,3.92
2022-08-11T17:42:02.106Z,4.93
2022-08-11T17:44:50.484Z,4.13
2022-08-11T17:47:38.532Z,3.15
2022-08-11T17:50:17.343Z,2.80
2022-08-11T17:53:05.463Z,3.17
2022-08-11T17:55:54.475Z,2.63
2022-08-11T17:58:41.425Z,2.20
2022-08-11T18:01:11.064Z,2.67
2022-08-11T18:03:40.753Z,2.45
2022-08-11T18:06:12.435Z,2.60
2022-08-11T18:09:04.851Z,2.97
2022-08-11T18:12:09.808Z,2.53
2022-08-11T18:15:00.345Z,2.55
2022-08-11T18:17:46.425Z,2.20
2022-08-11T18:20:32.477Z,2.70
2022-08-11T18:23:21.988Z,2.47
2022-08-11T18:26:29.500Z,2.53
2022-08-11T18:29:17.413Z,2.40
2022-08-11T18:32:09.096Z,2.63
2022-08-11T18:35:00.223Z,2.88
2022-08-11T18:37:53.776Z,2.60
2022-08-11T18:40:45.620Z,2.70
2022-08-11T18:43:33.571Z,2.70
2022-08-11T18:46:27.009Z,2.60
2022-08-11T18:49:26.646Z,3.30
2022-08-11T18:52:25.778Z,2.75
2022-08-11T18:55:17.190Z,3.50
2022-08-11T18:58:06.700Z,2.85
2022-08-11T19:00:56.189Z,2.72
2022-08-11T19:03:48.786Z,9.15
2022-08-11T19:06:40.934Z,2.95
2022-08-11T19:09:31.264Z,3.20
2022-08-11T19:12:18.998Z,2.95
2022-08-11T19:15:07.904Z,2.85
2022-08-11T19:17:56.923Z,2.90
2022-08-11T19:20:45.713Z,2.53
2022-08-11T19:23:36.670Z,3.25
2022-08-11T19:26:24.098Z,3.03
2022-08-11T19:30:04.883Z,2.88
2022-08-11T19:32:19.229Z,3.47
2022-08-11T19:35:06.094Z,3.45
2022-08-11T19:37:54.221Z,3.47
2022-08-11T19:40:41.138Z,3.58
2022-08-11T19:43:27.959Z,3.63
2022-08-11T19:46:16.944Z,4.22
2022-08-11T19:49:04.826Z,3.38
2022-08-11T19:51:54.218Z,3.35
2022-08-11T19:54:46.327Z,3.85
2022-08-11T19:57:38.946Z,3.50
2022-08-11T20:00:30.479Z,3.10
2022-08-11T20:03:18.405Z,3.47
2022-08-11T20:06:06.193Z,3.50
2022-08-11T20:08:58.313Z,3.53
2022-08-11T20:11:49.666Z,4.00
2022-08-11T20:14:38.135Z,7.35
2022-08-11T20:17:27.876Z,4.85
2022-08-11T20:20:16.175Z,4.10
2022-08-11T20:23:05.213Z,3.53
2022-08-11T20:25:55.804Z,3.55
2022-08-11T20:28:51.667Z,3.63
2022-08-11T20:31:40.042Z,3.05
2022-08-11T20:34:28.528Z,3.33
2022-08-11T20:37:16.818Z,10.43
2022-08-11T20:40:04.491Z,5.00
2022-08-11T20:42:52.309Z,3.85
2022-08-11T20:45:52.025Z,4.10
2022-08-11T20:48:41.376Z,3.97
2022-08-11T20:51:28.119Z,3.60
2022-08-11T20:54:38.152Z,3.70
2022-08-11T20:57:35.751Z,4.07
2022-08-11T21:00:41.155Z,4.95
2022-08-11T21:06:40.136Z,4.07
2022-08-11T21:09:59.043Z,4.68
2022-08-11T21:12:37.386Z,5.20
2022-08-11T21:15:47.392Z,4.40
2022-08-11T21:18:35.476Z,3.90
2022-08-11T21:21:25.940Z,4.20
2022-08-11T21:24:13.245Z,4.60
2022-08-11T21:27:04.964Z,3.70
2022-08-11T21:29:53.777Z,4.35
2022-08-11T21:32:41.000Z,3.83
2022-08-11T21:35:28.512Z,3.42
2022-08-11T21:38:16.093Z,4.60
2022-08-11T21:41:02.848Z,3.55
2022-08-11T21:43:51.072Z,3.97
2022-08-11T21:46:42.442Z,4.07
2022-08-11T21:49:31.423Z,4.05
2022-08-11T21:52:17.107Z,4.32
2022-08-11T21:55:03.511Z,4.07
2022-08-11T21:57:50.709Z,3.88
2022-08-11T22:00:36.632Z,4.60
2022-08-11T22:03:23.295Z,3.80
2022-08-11T22:06:10.027Z,4.00
2022-08-11T22:08:55.803Z,4.13
2022-08-11T22:11:41.545Z,3.72
2022-08-11T22:14:27.591Z,4.30
2022-08-11T22:17:13.224Z,4.20
2022-08-11T22:20:00.804Z,3.60
2022-08-11T22:22:52.876Z,3.75
2022-08-11T22:25:51.008Z,4.30
2022-08-11T22:28:38.247Z,3.67
2022-08-11T22:31:26.488Z,3.75
2022-08-11T22:34:12.193Z,3.67
2022-08-11T22:37:00.078Z,3.55
2022-08-11T22:39:59.875Z,3.63
2022-08-11T22:42:50.596Z,3.42
2022-08-11T22:45:36.853Z,4.00
2022-08-11T22:48:28.007Z,3.28
2022-08-11T22:51:15.896Z,3.55
2022-08-11T22:54:02.598Z,4.50
2022-08-11T22:56:49.663Z,3.42
2022-08-11T22:59:38.086Z,3.58
2022-08-11T23:02:25.339Z,4.22
2022-08-11T23:05:12.611Z,4.30
2022-08-11T23:07:59.925Z,4.18
2022-08-11T23:10:46.350Z,6.18
2022-08-11T23:13:32.375Z,11.10
2022-08-11T23:16:18.664Z,3.83
2022-08-11T23:19:05.164Z,4.18
2022-08-11T23:21:52.320Z,4.13
2022-08-11T23:24:39.207Z,4.03
2022-08-11T23:27:27.877Z,4.00
2022-08-11T23:30:19.068Z,4.00
2022-08-11T23:33:08.599Z,4.35
2022-08-11T23:36:03.429Z,4.30
2022-08-11T23:38:51.665Z,3.70
2022-08-11T23:41:37.709Z,4.10
2022-08-11T23:44:27.950Z,3.92
2022-08-11T23:47:17.719Z,4.40
2022-08-11T23:50:06.014Z,3.80
2022-08-11T23:52:53.530Z,3.97
2022-08-11T23:55:40.305Z,4.25
2022-08-11T23:58:27.472Z,3.90
